Hauptseite
METAR-TAF:

METAR-TAF

Flughäfen :

Glasgow-Prestwick, Schottland

Flughafen Glasgow-Prestwick

Breite: 55-30N, Länge: 004-35W, Höhe: 20 m

Beobachtung

Neuester Wetterbericht von vor 26 Minuten, um 00:50 UTC
Wind 3 kt aus Ost/Nordost
Temperatur 0°C
Luftfeuchtigkeit 80%
Luftdruck 1028 hPa
Sichtweite 10 km oder mehr
Leicht bewölkt in der Höhe von 4200 ft

METAR: EGPK 250050Z 07003KT 9999 FEW042 00/M03 Q1028

Zeit: 01:16 (01:16 UTC)

Prognose

Neuester Wetterbericht von vor 2 Stunden und 23 Minuten, um 22:53 UTC
Gültige Prognose vom 25 um 00 UTC bis 25 um 24 UTC
Wind 9 kt aus Ost/Südost
Sichtweite 10 km oder mehr
Leicht bewölkt in der Höhe von 3500 ft

TAF: EGPK 242253Z 2500/2524 12009KT 9999 FEW035

Wetterbeobachtungen und Prognosen von mehr als 4000 Flughäfen (METAR und TAF Bericht).

Die verfügbaren Stationen werden durch gelbe und rote Markierungen auf der Karte dargestellt.

Führen Sie die Maus auf sie, um den Namen der Station zu sehen.

Darauf klicken, um die Beobachtung von Wetterbeobachtungen und Prognosen zu sehen.

Um die Karte zu ändern : klicken Sie auf den grünen Tasten mit einem schwarzen Kreuz Zum Vergrößern, auf den grünen Button mit einem Gedankenstrich zu verkleinern, oder auf die grünen Pfeile für benachbarte Karten.


METAR-TAF: